sensor_id;sensor_type;location;lat;lon;timestamp;P1;durP1;ratioP1;P2;durP2;ratioP2
76357;SDS011;65185;21.060;105.826;2023-07-31T00:01:27;35.42;;;21.80;;
76357;SDS011;65185;21.060;105.826;2023-07-31T00:03:53;39.72;;;24.42;;
76357;SDS011;65185;21.060;105.826;2023-07-31T00:06:20;43.58;;;25.13;;
76357;SDS011;65185;21.060;105.826;2023-07-31T00:08:46;39.03;;;24.85;;
76357;SDS011;65185;21.060;105.826;2023-07-31T00:11:12;44.50;;;27.00;;
76357;SDS011;65185;21.060;105.826;2023-07-31T00:13:39;45.92;;;25.45;;
76357;SDS011;65185;21.060;105.826;2023-07-31T00:16:05;43.10;;;28.00;;
76357;SDS011;65185;21.060;105.826;2023-07-31T00:18:32;47.22;;;26.25;;
76357;SDS011;65185;21.060;105.826;2023-07-31T00:20:58;46.13;;;28.50;;
76357;SDS011;65185;21.060;105.826;2023-07-31T00:23:25;43.90;;;24.88;;
76357;SDS011;65185;21.060;105.826;2023-07-31T00:25:51;35.45;;;21.17;;
76357;SDS011;65185;21.060;105.826;2023-07-31T00:28:17;35.75;;;18.60;;
76357;SDS011;65185;21.060;105.826;2023-07-31T00:30:44;29.52;;;19.00;;
76357;SDS011;65185;21.060;105.826;2023-07-31T00:33:10;30.40;;;17.90;;
76357;SDS011;65185;21.060;105.826;2023-07-31T00:35:37;32.90;;;20.30;;
76357;SDS011;65185;21.060;105.826;2023-07-31T00:38:03;31.73;;;18.30;;
76357;SDS011;65185;21.060;105.826;2023-07-31T00:40:34;30.70;;;17.45;;
76357;SDS011;65185;21.060;105.826;2023-07-31T00:43:02;26.35;;;16.48;;
76357;SDS011;65185;21.060;105.826;2023-07-31T00:45:29;31.70;;;18.95;;
76357;SDS011;65185;21.060;105.826;2023-07-31T00:47:56;32.03;;;19.55;;
76357;SDS011;65185;21.060;105.826;2023-07-31T00:50:24;29.08;;;18.50;;
76357;SDS011;65185;21.060;105.826;2023-07-31T00:52:51;27.17;;;18.50;;
76357;SDS011;65185;21.060;105.826;2023-07-31T00:55:18;31.58;;;18.35;;
76357;SDS011;65185;21.060;105.826;2023-07-31T00:57:44;31.88;;;19.73;;
76357;SDS011;65185;21.060;105.826;2023-07-31T01:00:11;35.88;;;22.42;;
76357;SDS011;65185;21.060;105.826;2023-07-31T01:02:38;39.30;;;22.65;;
76357;SDS011;65185;21.060;105.826;2023-07-31T01:05:05;33.42;;;21.63;;
76357;SDS011;65185;21.060;105.826;2023-07-31T01:10:11;32.58;;;18.98;;
76357;SDS011;65185;21.060;105.826;2023-07-31T01:12:42;31.77;;;20.38;;
76357;SDS011;65185;21.060;105.826;2023-07-31T01:15:12;32.22;;;19.52;;
76357;SDS011;65185;21.060;105.826;2023-07-31T01:17:41;30.10;;;19.27;;
76357;SDS011;65185;21.060;105.826;2023-07-31T01:20:15;33.42;;;19.65;;
76357;SDS011;65185;21.060;105.826;2023-07-31T01:23:05;28.15;;;17.83;;
76357;SDS011;65185;21.060;105.826;2023-07-31T01:28:44;28.20;;;17.70;;
76357;SDS011;65185;21.060;105.826;2023-07-31T01:31:14;31.95;;;18.85;;
76357;SDS011;65185;21.060;105.826;2023-07-31T01:33:46;26.67;;;16.20;;
76357;SDS011;65185;21.060;105.826;2023-07-31T01:36:12;29.58;;;18.25;;
76357;SDS011;65185;21.060;105.826;2023-07-31T01:38:39;31.85;;;18.33;;
76357;SDS011;65185;21.060;105.826;2023-07-31T01:41:06;31.88;;;19.60;;
76357;SDS011;65185;21.060;105.826;2023-07-31T01:43:32;30.48;;;19.05;;
76357;SDS011;65185;21.060;105.826;2023-07-31T01:45:59;31.50;;;19.05;;
76357;SDS011;65185;21.060;105.826;2023-07-31T01:48:25;31.42;;;17.20;;
76357;SDS011;65185;21.060;105.826;2023-07-31T01:50:51;31.77;;;20.35;;
76357;SDS011;65185;21.060;105.826;2023-07-31T01:53:18;30.92;;;18.73;;
76357;SDS011;65185;21.060;105.826;2023-07-31T01:55:44;31.40;;;18.30;;
76357;SDS011;65185;21.060;105.826;2023-07-31T01:58:11;29.88;;;17.92;;
76357;SDS011;65185;21.060;105.826;2023-07-31T02:00:37;34.58;;;19.30;;
76357;SDS011;65185;21.060;105.826;2023-07-31T02:03:04;28.30;;;16.27;;
76357;SDS011;65185;21.060;105.826;2023-07-31T02:05:30;27.25;;;16.65;;
76357;SDS011;65185;21.060;105.826;2023-07-31T02:07:57;35.83;;;20.40;;
76357;SDS011;65185;21.060;105.826;2023-07-31T02:10:23;41.22;;;19.90;;
76357;SDS011;65185;21.060;105.826;2023-07-31T02:12:50;36.45;;;18.55;;
76357;SDS011;65185;21.060;105.826;2023-07-31T02:15:16;30.45;;;17.85;;
76357;SDS011;65185;21.060;105.826;2023-07-31T02:17:43;26.70;;;15.63;;
76357;SDS011;65185;21.060;105.826;2023-07-31T02:20:10;21.85;;;14.57;;
76357;SDS011;65185;21.060;105.826;2023-07-31T02:22:37;21.95;;;13.95;;
76357;SDS011;65185;21.060;105.826;2023-07-31T02:25:03;23.83;;;14.40;;
76357;SDS011;65185;21.060;105.826;2023-07-31T02:27:30;21.75;;;13.27;;
76357;SDS011;65185;21.060;105.826;2023-07-31T02:29:56;25.33;;;13.77;;
76357;SDS011;65185;21.060;105.826;2023-07-31T02:32:24;23.35;;;12.63;;
76357;SDS011;65185;21.060;105.826;2023-07-31T02:34:51;22.58;;;12.80;;
76357;SDS011;65185;21.060;105.826;2023-07-31T02:37:17;27.42;;;13.27;;
76357;SDS011;65185;21.060;105.826;2023-07-31T02:39:44;23.30;;;12.93;;
76357;SDS011;65185;21.060;105.826;2023-07-31T02:42:10;22.63;;;12.23;;
76357;SDS011;65185;21.060;105.826;2023-07-31T02:44:36;24.83;;;13.68;;
76357;SDS011;65185;21.060;105.826;2023-07-31T02:47:03;21.05;;;12.45;;
76357;SDS011;65185;21.060;105.826;2023-07-31T02:49:30;26.27;;;14.40;;
76357;SDS011;65185;21.060;105.826;2023-07-31T02:51:56;25.05;;;13.52;;
76357;SDS011;65185;21.060;105.826;2023-07-31T02:54:22;22.00;;;12.50;;
76357;SDS011;65185;21.060;105.826;2023-07-31T02:56:49;21.15;;;12.68;;
76357;SDS011;65185;21.060;105.826;2023-07-31T02:59:16;20.10;;;12.18;;
76357;SDS011;65185;21.060;105.826;2023-07-31T03:01:44;22.35;;;12.57;;
76357;SDS011;65185;21.060;105.826;2023-07-31T03:04:10;21.42;;;12.55;;
76357;SDS011;65185;21.060;105.826;2023-07-31T03:06:37;18.83;;;11.30;;
76357;SDS011;65185;21.060;105.826;2023-07-31T03:09:03;27.83;;;13.55;;
76357;SDS011;65185;21.060;105.826;2023-07-31T03:11:29;17.92;;;11.68;;
76357;SDS011;65185;21.060;105.826;2023-07-31T03:13:56;22.33;;;11.70;;
76357;SDS011;65185;21.060;105.826;2023-07-31T03:16:22;18.25;;;11.07;;
76357;SDS011;65185;21.060;105.826;2023-07-31T03:18:49;19.95;;;11.82;;
76357;SDS011;65185;21.060;105.826;2023-07-31T03:21:15;18.15;;;11.15;;
76357;SDS011;65185;21.060;105.826;2023-07-31T03:23:41;22.85;;;13.00;;
76357;SDS011;65185;21.060;105.826;2023-07-31T03:26:08;25.02;;;12.40;;
76357;SDS011;65185;21.060;105.826;2023-07-31T03:28:36;21.95;;;13.02;;
76357;SDS011;65185;21.060;105.826;2023-07-31T03:31:02;19.02;;;10.68;;
76357;SDS011;65185;21.060;105.826;2023-07-31T03:33:29;24.17;;;12.88;;
76357;SDS011;65185;21.060;105.826;2023-07-31T03:35:55;19.30;;;11.07;;
76357;SDS011;65185;21.060;105.826;2023-07-31T03:38:22;22.75;;;13.07;;
76357;SDS011;65185;21.060;105.826;2023-07-31T03:40:48;22.10;;;13.48;;
76357;SDS011;65185;21.060;105.826;2023-07-31T03:43:15;22.67;;;13.15;;
76357;SDS011;65185;21.060;105.826;2023-07-31T03:45:41;22.92;;;13.55;;
76357;SDS011;65185;21.060;105.826;2023-07-31T03:48:08;25.80;;;15.20;;
76357;SDS011;65185;21.060;105.826;2023-07-31T03:50:34;24.55;;;14.02;;
76357;SDS011;65185;21.060;105.826;2023-07-31T03:53:01;22.02;;;12.80;;
76357;SDS011;65185;21.060;105.826;2023-07-31T03:55:28;23.38;;;14.32;;
76357;SDS011;65185;21.060;105.826;2023-07-31T03:57:54;21.30;;;13.27;;
76357;SDS011;65185;21.060;105.826;2023-07-31T04:00:20;23.75;;;12.85;;
76357;SDS011;65185;21.060;105.826;2023-07-31T04:02:48;22.67;;;13.68;;
76357;SDS011;65185;21.060;105.826;2023-07-31T04:05:14;26.98;;;15.65;;
76357;SDS011;65185;21.060;105.826;2023-07-31T04:07:41;24.05;;;14.45;;
76357;SDS011;65185;21.060;105.826;2023-07-31T04:10:08;23.85;;;13.73;;
76357;SDS011;65185;21.060;105.826;2023-07-31T04:12:34;23.45;;;13.85;;
76357;SDS011;65185;21.060;105.826;2023-07-31T04:15:01;19.67;;;12.02;;
76357;SDS011;65185;21.060;105.826;2023-07-31T04:17:28;24.77;;;13.82;;
76357;SDS011;65185;21.060;105.826;2023-07-31T04:19:54;24.05;;;13.90;;
76357;SDS011;65185;21.060;105.826;2023-07-31T04:22:25;24.55;;;14.43;;
76357;SDS011;65185;21.060;105.826;2023-07-31T04:24:53;23.50;;;14.07;;
76357;SDS011;65185;21.060;105.826;2023-07-31T04:27:19;23.00;;;11.40;;
76357;SDS011;65185;21.060;105.826;2023-07-31T04:29:46;18.98;;;12.02;;
76357;SDS011;65185;21.060;105.826;2023-07-31T04:32:13;20.65;;;12.52;;
76357;SDS011;65185;21.060;105.826;2023-07-31T04:37:08;21.50;;;13.00;;
76357;SDS011;65185;21.060;105.826;2023-07-31T04:39:34;19.45;;;12.13;;
76357;SDS011;65185;21.060;105.826;2023-07-31T04:42:01;21.25;;;13.43;;
76357;SDS011;65185;21.060;105.826;2023-07-31T04:44:27;19.30;;;11.90;;
76357;SDS011;65185;21.060;105.826;2023-07-31T04:46:54;20.80;;;12.57;;
76357;SDS011;65185;21.060;105.826;2023-07-31T04:49:20;21.60;;;13.20;;
76357;SDS011;65185;21.060;105.826;2023-07-31T04:51:47;20.55;;;15.77;;
76357;SDS011;65185;21.060;105.826;2023-07-31T04:54:13;20.30;;;13.82;;
76357;SDS011;65185;21.060;105.826;2023-07-31T04:56:43;20.02;;;14.18;;
76357;SDS011;65185;21.060;105.826;2023-07-31T04:59:09;20.25;;;14.93;;
76357;SDS011;65185;21.060;105.826;2023-07-31T05:01:36;21.15;;;13.63;;
76357;SDS011;65185;21.060;105.826;2023-07-31T05:04:02;21.25;;;15.10;;
76357;SDS011;65185;21.060;105.826;2023-07-31T05:06:29;18.15;;;13.23;;
76357;SDS011;65185;21.060;105.826;2023-07-31T05:08:55;25.95;;;15.82;;
76357;SDS011;65185;21.060;105.826;2023-07-31T05:11:21;18.73;;;12.30;;
76357;SDS011;65185;21.060;105.826;2023-07-31T05:13:48;20.80;;;13.45;;
76357;SDS011;65185;21.060;105.826;2023-07-31T05:16:14;19.70;;;14.18;;
76357;SDS011;65185;21.060;105.826;2023-07-31T05:18:41;21.48;;;15.75;;
76357;SDS011;65185;21.060;105.826;2023-07-31T05:21:07;22.88;;;15.80;;
76357;SDS011;65185;21.060;105.826;2023-07-31T05:23:34;18.63;;;14.15;;
76357;SDS011;65185;21.060;105.826;2023-07-31T05:26:06;21.58;;;13.52;;
76357;SDS011;65185;21.060;105.826;2023-07-31T05:28:35;16.13;;;12.77;;
76357;SDS011;65185;21.060;105.826;2023-07-31T05:31:03;16.27;;;12.75;;
76357;SDS011;65185;21.060;105.826;2023-07-31T05:33:30;16.63;;;13.93;;
76357;SDS011;65185;21.060;105.826;2023-07-31T05:35:57;18.52;;;14.38;;
76357;SDS011;65185;21.060;105.826;2023-07-31T05:38:24;17.08;;;13.18;;
76357;SDS011;65185;21.060;105.826;2023-07-31T05:40:50;16.58;;;13.27;;
76357;SDS011;65185;21.060;105.826;2023-07-31T05:43:17;18.27;;;12.88;;
76357;SDS011;65185;21.060;105.826;2023-07-31T05:45:43;17.58;;;12.45;;
76357;SDS011;65185;21.060;105.826;2023-07-31T05:48:10;19.25;;;13.77;;
76357;SDS011;65185;21.060;105.826;2023-07-31T05:50:36;18.80;;;12.43;;
76357;SDS011;65185;21.060;105.826;2023-07-31T05:53:05;20.63;;;14.13;;
76357;SDS011;65185;21.060;105.826;2023-07-31T05:55:33;19.95;;;12.77;;
76357;SDS011;65185;21.060;105.826;2023-07-31T05:58:00;16.42;;;12.30;;
76357;SDS011;65185;21.060;105.826;2023-07-31T06:00:26;16.27;;;12.35;;
76357;SDS011;65185;21.060;105.826;2023-07-31T06:02:53;13.73;;;11.13;;
76357;SDS011;65185;21.060;105.826;2023-07-31T06:05:19;16.92;;;12.45;;
76357;SDS011;65185;21.060;105.826;2023-07-31T06:07:46;17.35;;;11.07;;
76357;SDS011;65185;21.060;105.826;2023-07-31T06:10:12;16.75;;;11.52;;
76357;SDS011;65185;21.060;105.826;2023-07-31T06:12:43;16.90;;;12.60;;
76357;SDS011;65185;21.060;105.826;2023-07-31T06:15:10;19.75;;;13.93;;
76357;SDS011;65185;21.060;105.826;2023-07-31T06:17:37;16.48;;;12.43;;
76357;SDS011;65185;21.060;105.826;2023-07-31T06:20:05;14.95;;;12.85;;
76357;SDS011;65185;21.060;105.826;2023-07-31T06:22:33;18.30;;;12.95;;
76357;SDS011;65185;21.060;105.826;2023-07-31T06:25:00;18.13;;;12.70;;
76357;SDS011;65185;21.060;105.826;2023-07-31T06:27:26;15.88;;;13.23;;
76357;SDS011;65185;21.060;105.826;2023-07-31T06:29:54;15.52;;;11.60;;
76357;SDS011;65185;21.060;105.826;2023-07-31T06:32:21;15.27;;;11.98;;
76357;SDS011;65185;21.060;105.826;2023-07-31T06:34:48;15.15;;;11.90;;
76357;SDS011;65185;21.060;105.826;2023-07-31T06:37:14;16.80;;;13.68;;
76357;SDS011;65185;21.060;105.826;2023-07-31T06:39:42;21.00;;;15.70;;
76357;SDS011;65185;21.060;105.826;2023-07-31T06:42:09;19.05;;;15.95;;
76357;SDS011;65185;21.060;105.826;2023-07-31T06:44:35;24.27;;;15.32;;
76357;SDS011;65185;21.060;105.826;2023-07-31T06:47:02;15.75;;;11.95;;
76357;SDS011;65185;21.060;105.826;2023-07-31T06:49:29;19.05;;;13.45;;
76357;SDS011;65185;21.060;105.826;2023-07-31T06:51:56;19.10;;;14.23;;
76357;SDS011;65185;21.060;105.826;2023-07-31T06:54:23;17.90;;;13.30;;
76357;SDS011;65185;21.060;105.826;2023-07-31T06:56:50;18.05;;;14.77;;
76357;SDS011;65185;21.060;105.826;2023-07-31T06:59:16;17.35;;;15.18;;
76357;SDS011;65185;21.060;105.826;2023-07-31T07:01:43;15.75;;;11.75;;
76357;SDS011;65185;21.060;105.826;2023-07-31T07:04:10;15.93;;;10.98;;
76357;SDS011;65185;21.060;105.826;2023-07-31T07:06:37;14.25;;;11.23;;
76357;SDS011;65185;21.060;105.826;2023-07-31T07:09:04;19.70;;;12.38;;
76357;SDS011;65185;21.060;105.826;2023-07-31T07:11:31;14.18;;;10.50;;
76357;SDS011;65185;21.060;105.826;2023-07-31T07:13:58;12.40;;;7.75;;
76357;SDS011;65185;21.060;105.826;2023-07-31T07:16:26;18.15;;;3.83;;
76357;SDS011;65185;21.060;105.826;2023-07-31T07:18:54;7.72;;;2.53;;
76357;SDS011;65185;21.060;105.826;2023-07-31T07:21:21;7.75;;;2.38;;
76357;SDS011;65185;21.060;105.826;2023-07-31T07:23:48;11.05;;;2.78;;
76357;SDS011;65185;21.060;105.826;2023-07-31T07:26:15;11.90;;;3.00;;
76357;SDS011;65185;21.060;105.826;2023-07-31T07:28:42;7.85;;;2.45;;
76357;SDS011;65185;21.060;105.826;2023-07-31T07:31:09;10.25;;;2.90;;
76357;SDS011;65185;21.060;105.826;2023-07-31T07:33:35;11.95;;;2.97;;
76357;SDS011;65185;21.060;105.826;2023-07-31T07:36:02;9.38;;;2.47;;
76357;SDS011;65185;21.060;105.826;2023-07-31T07:38:29;8.60;;;2.35;;
76357;SDS011;65185;21.060;105.826;2023-07-31T07:40:56;9.77;;;2.28;;
76357;SDS011;65185;21.060;105.826;2023-07-31T07:43:22;9.15;;;1.85;;
76357;SDS011;65185;21.060;105.826;2023-07-31T07:45:49;6.85;;;1.60;;
76357;SDS011;65185;21.060;105.826;2023-07-31T07:48:16;7.78;;;1.60;;
76357;SDS011;65185;21.060;105.826;2023-07-31T07:50:43;10.18;;;2.00;;
76357;SDS011;65185;21.060;105.826;2023-07-31T07:53:09;6.53;;;1.70;;
76357;SDS011;65185;21.060;105.826;2023-07-31T07:55:36;7.70;;;1.60;;
76357;SDS011;65185;21.060;105.826;2023-07-31T07:58:03;7.85;;;1.70;;
76357;SDS011;65185;21.060;105.826;2023-07-31T08:00:30;7.57;;;1.50;;
76357;SDS011;65185;21.060;105.826;2023-07-31T08:02:57;7.93;;;1.90;;
76357;SDS011;65185;21.060;105.826;2023-07-31T08:05:24;6.60;;;1.65;;
76357;SDS011;65185;21.060;105.826;2023-07-31T08:07:50;7.35;;;1.90;;
76357;SDS011;65185;21.060;105.826;2023-07-31T08:10:17;7.43;;;2.03;;
76357;SDS011;65185;21.060;105.826;2023-07-31T08:12:44;5.88;;;1.70;;
76357;SDS011;65185;21.060;105.826;2023-07-31T08:15:11;6.28;;;1.67;;
76357;SDS011;65185;21.060;105.826;2023-07-31T08:17:38;7.30;;;2.42;;
76357;SDS011;65185;21.060;105.826;2023-07-31T08:20:05;10.02;;;3.15;;
76357;SDS011;65185;21.060;105.826;2023-07-31T08:22:32;10.98;;;4.63;;
76357;SDS011;65185;21.060;105.826;2023-07-31T08:24:59;6.22;;;2.55;;
76357;SDS011;65185;21.060;105.826;2023-07-31T08:27:26;6.75;;;2.15;;
76357;SDS011;65185;21.060;105.826;2023-07-31T08:29:53;8.10;;;2.40;;
76357;SDS011;65185;21.060;105.826;2023-07-31T08:32:20;5.78;;;2.17;;
76357;SDS011;65185;21.060;105.826;2023-07-31T08:34:46;7.43;;;2.70;;
76357;SDS011;65185;21.060;105.826;2023-07-31T08:37:14;8.95;;;2.88;;
76357;SDS011;65185;21.060;105.826;2023-07-31T08:39:41;6.65;;;2.80;;
76357;SDS011;65185;21.060;105.826;2023-07-31T08:42:08;7.63;;;2.97;;
76357;SDS011;65185;21.060;105.826;2023-07-31T08:44:35;7.18;;;2.78;;
76357;SDS011;65185;21.060;105.826;2023-07-31T08:47:03;6.63;;;2.70;;
76357;SDS011;65185;21.060;105.826;2023-07-31T08:49:30;6.80;;;2.40;;
76357;SDS011;65185;21.060;105.826;2023-07-31T08:51:58;8.77;;;2.40;;
76357;SDS011;65185;21.060;105.826;2023-07-31T08:54:25;10.00;;;3.70;;
76357;SDS011;65185;21.060;105.826;2023-07-31T08:56:56;10.05;;;3.80;;
76357;SDS011;65185;21.060;105.826;2023-07-31T08:59:26;9.68;;;4.00;;
76357;SDS011;65185;21.060;105.826;2023-07-31T09:01:57;12.13;;;4.10;;
76357;SDS011;65185;21.060;105.826;2023-07-31T09:04:28;8.65;;;3.47;;
76357;SDS011;65185;21.060;105.826;2023-07-31T09:06:59;10.68;;;4.32;;
76357;SDS011;65185;21.060;105.826;2023-07-31T09:09:29;10.75;;;3.75;;
76357;SDS011;65185;21.060;105.826;2023-07-31T09:11:59;9.40;;;4.15;;
76357;SDS011;65185;21.060;105.826;2023-07-31T09:14:26;9.40;;;3.88;;
76357;SDS011;65185;21.060;105.826;2023-07-31T09:19:25;8.20;;;3.22;;
76357;SDS011;65185;21.060;105.826;2023-07-31T09:22:05;8.15;;;3.08;;
76357;SDS011;65185;21.060;105.826;2023-07-31T09:24:32;7.57;;;2.80;;
76357;SDS011;65185;21.060;105.826;2023-07-31T09:27:01;8.93;;;3.20;;
76357;SDS011;65185;21.060;105.826;2023-07-31T09:29:28;8.15;;;2.80;;
76357;SDS011;65185;21.060;105.826;2023-07-31T09:31:58;8.65;;;3.15;;
76357;SDS011;65185;21.060;105.826;2023-07-31T09:34:29;7.72;;;3.10;;
76357;SDS011;65185;21.060;105.826;2023-07-31T09:37:06;8.48;;;3.08;;
76357;SDS011;65185;21.060;105.826;2023-07-31T09:39:36;7.50;;;2.83;;
76357;SDS011;65185;21.060;105.826;2023-07-31T09:42:12;7.50;;;3.05;;
76357;SDS011;65185;21.060;105.826;2023-07-31T09:44:40;10.13;;;2.70;;
76357;SDS011;65185;21.060;105.826;2023-07-31T09:47:10;7.72;;;3.08;;
76357;SDS011;65185;21.060;105.826;2023-07-31T09:49:49;8.77;;;3.50;;
76357;SDS011;65185;21.060;105.826;2023-07-31T09:52:16;9.55;;;3.28;;
76357;SDS011;65185;21.060;105.826;2023-07-31T09:54:43;9.10;;;3.20;;
76357;SDS011;65185;21.060;105.826;2023-07-31T09:57:10;10.98;;;3.45;;
76357;SDS011;65185;21.060;105.826;2023-07-31T09:59:37;13.13;;;4.05;;
76357;SDS011;65185;21.060;105.826;2023-07-31T10:02:05;8.73;;;3.42;;
76357;SDS011;65185;21.060;105.826;2023-07-31T10:04:41;8.73;;;3.30;;
76357;SDS011;65185;21.060;105.826;2023-07-31T10:07:10;8.73;;;3.05;;
76357;SDS011;65185;21.060;105.826;2023-07-31T10:09:37;9.10;;;3.25;;
76357;SDS011;65185;21.060;105.826;2023-07-31T10:12:04;9.50;;;3.50;;
76357;SDS011;65185;21.060;105.826;2023-07-31T10:14:35;9.05;;;3.40;;
76357;SDS011;65185;21.060;105.826;2023-07-31T10:17:02;9.52;;;3.55;;
76357;SDS011;65185;21.060;105.826;2023-07-31T10:19:30;11.27;;;3.67;;
76357;SDS011;65185;21.060;105.826;2023-07-31T10:22:00;9.90;;;4.88;;
76357;SDS011;65185;21.060;105.826;2023-07-31T10:24:29;13.60;;;5.97;;
76357;SDS011;65185;21.060;105.826;2023-07-31T10:26:57;11.15;;;6.20;;
76357;SDS011;65185;21.060;105.826;2023-07-31T10:29:25;15.25;;;7.47;;
76357;SDS011;65185;21.060;105.826;2023-07-31T10:31:56;14.43;;;7.70;;
76357;SDS011;65185;21.060;105.826;2023-07-31T10:34:24;14.85;;;6.88;;
76357;SDS011;65185;21.060;105.826;2023-07-31T10:37:12;10.55;;;5.50;;
76357;SDS011;65185;21.060;105.826;2023-07-31T10:39:59;11.10;;;5.43;;
76357;SDS011;65185;21.060;105.826;2023-07-31T10:42:47;9.27;;;4.32;;
76357;SDS011;65185;21.060;105.826;2023-07-31T10:45:32;11.80;;;4.05;;
76357;SDS011;65185;21.060;105.826;2023-07-31T10:48:34;8.57;;;3.20;;
76357;SDS011;65185;21.060;105.826;2023-07-31T10:50:58;10.15;;;5.38;;
76357;SDS011;65185;21.060;105.826;2023-07-31T10:53:32;12.40;;;5.47;;
76357;SDS011;65185;21.060;105.826;2023-07-31T10:55:59;9.88;;;4.82;;
76357;SDS011;65185;21.060;105.826;2023-07-31T10:58:27;8.70;;;4.40;;
76357;SDS011;65185;21.060;105.826;2023-07-31T11:00:58;8.65;;;3.70;;
76357;SDS011;65185;21.060;105.826;2023-07-31T11:03:29;8.18;;;3.47;;
76357;SDS011;65185;21.060;105.826;2023-07-31T11:06:14;9.13;;;3.55;;
76357;SDS011;65185;21.060;105.826;2023-07-31T11:08:43;7.60;;;3.15;;
76357;SDS011;65185;21.060;105.826;2023-07-31T11:11:14;6.00;;;2.95;;
76357;SDS011;65185;21.060;105.826;2023-07-31T11:13:48;7.18;;;2.60;;
76357;SDS011;65185;21.060;105.826;2023-07-31T11:16:18;7.05;;;3.03;;
76357;SDS011;65185;21.060;105.826;2023-07-31T11:18:49;8.85;;;3.65;;
76357;SDS011;65185;21.060;105.826;2023-07-31T11:21:19;7.43;;;3.45;;
76357;SDS011;65185;21.060;105.826;2023-07-31T11:23:48;6.88;;;3.22;;
76357;SDS011;65185;21.060;105.826;2023-07-31T11:26:22;8.57;;;4.18;;
76357;SDS011;65185;21.060;105.826;2023-07-31T11:28:50;9.85;;;4.70;;
76357;SDS011;65185;21.060;105.826;2023-07-31T11:31:18;8.75;;;3.90;;
76357;SDS011;65185;21.060;105.826;2023-07-31T11:33:45;7.85;;;3.10;;
76357;SDS011;65185;21.060;105.826;2023-07-31T11:36:18;8.40;;;3.85;;
76357;SDS011;65185;21.060;105.826;2023-07-31T11:38:46;9.57;;;4.47;;
76357;SDS011;65185;21.060;105.826;2023-07-31T11:41:13;11.52;;;4.50;;
76357;SDS011;65185;21.060;105.826;2023-07-31T11:43:42;9.45;;;4.20;;
76357;SDS011;65185;21.060;105.826;2023-07-31T11:46:09;10.45;;;5.85;;
76357;SDS011;65185;21.060;105.826;2023-07-31T11:48:36;10.32;;;5.03;;
76357;SDS011;65185;21.060;105.826;2023-07-31T11:51:04;10.55;;;4.25;;
76357;SDS011;65185;21.060;105.826;2023-07-31T11:53:42;8.02;;;3.08;;
76357;SDS011;65185;21.060;105.826;2023-07-31T11:56:16;8.15;;;3.63;;
76357;SDS011;65185;21.060;105.826;2023-07-31T11:58:48;7.95;;;4.00;;
76357;SDS011;65185;21.060;105.826;2023-07-31T12:01:21;8.77;;;3.90;;
76357;SDS011;65185;21.060;105.826;2023-07-31T12:03:49;11.60;;;5.32;;
76357;SDS011;65185;21.060;105.826;2023-07-31T12:06:18;11.20;;;7.05;;
76357;SDS011;65185;21.060;105.826;2023-07-31T12:08:46;15.43;;;8.50;;
76357;SDS011;65185;21.060;105.826;2023-07-31T12:11:14;14.48;;;9.27;;
76357;SDS011;65185;21.060;105.826;2023-07-31T12:13:43;17.13;;;9.60;;
76357;SDS011;65185;21.060;105.826;2023-07-31T12:16:10;17.88;;;9.80;;
76357;SDS011;65185;21.060;105.826;2023-07-31T12:18:37;17.80;;;9.73;;
76357;SDS011;65185;21.060;105.826;2023-07-31T12:21:06;17.08;;;10.95;;
76357;SDS011;65185;21.060;105.826;2023-07-31T12:23:35;16.48;;;10.13;;
76357;SDS011;65185;21.060;105.826;2023-07-31T12:26:12;14.07;;;9.07;;
76357;SDS011;65185;21.060;105.826;2023-07-31T12:28:48;15.40;;;8.85;;
76357;SDS011;65185;21.060;105.826;2023-07-31T12:31:16;13.95;;;8.70;;
76357;SDS011;65185;21.060;105.826;2023-07-31T12:33:45;16.08;;;9.20;;
76357;SDS011;65185;21.060;105.826;2023-07-31T12:36:14;15.98;;;9.30;;
76357;SDS011;65185;21.060;105.826;2023-07-31T12:38:42;15.88;;;9.48;;
76357;SDS011;65185;21.060;105.826;2023-07-31T12:41:10;13.85;;;8.75;;
76357;SDS011;65185;21.060;105.826;2023-07-31T12:43:37;15.48;;;8.70;;
76357;SDS011;65185;21.060;105.826;2023-07-31T12:46:05;18.08;;;9.15;;
76357;SDS011;65185;21.060;105.826;2023-07-31T12:48:36;18.45;;;9.88;;
76357;SDS011;65185;21.060;105.826;2023-07-31T12:51:04;18.48;;;9.32;;
76357;SDS011;65185;21.060;105.826;2023-07-31T12:53:32;15.70;;;9.13;;
76357;SDS011;65185;21.060;105.826;2023-07-31T12:55:59;14.82;;;8.80;;
76357;SDS011;65185;21.060;105.826;2023-07-31T12:58:25;16.27;;;7.78;;
76357;SDS011;65185;21.060;105.826;2023-07-31T13:00:52;14.90;;;8.07;;
76357;SDS011;65185;21.060;105.826;2023-07-31T13:03:19;16.30;;;7.57;;
76357;SDS011;65185;21.060;105.826;2023-07-31T13:05:46;15.50;;;7.82;;
76357;SDS011;65185;21.060;105.826;2023-07-31T13:08:12;12.23;;;6.72;;
76357;SDS011;65185;21.060;105.826;2023-07-31T13:10:41;13.27;;;5.78;;
76357;SDS011;65185;21.060;105.826;2023-07-31T13:13:08;13.32;;;6.72;;
76357;SDS011;65185;21.060;105.826;2023-07-31T13:15:35;11.57;;;6.20;;
76357;SDS011;65185;21.060;105.826;2023-07-31T13:18:02;12.27;;;5.60;;
76357;SDS011;65185;21.060;105.826;2023-07-31T13:20:29;12.70;;;6.65;;
76357;SDS011;65185;21.060;105.826;2023-07-31T13:22:56;12.77;;;5.65;;
76357;SDS011;65185;21.060;105.826;2023-07-31T13:25:23;13.48;;;6.30;;
76357;SDS011;65185;21.060;105.826;2023-07-31T13:27:50;15.32;;;7.70;;
76357;SDS011;65185;21.060;105.826;2023-07-31T13:30:16;15.52;;;8.55;;
76357;SDS011;65185;21.060;105.826;2023-07-31T13:32:43;17.63;;;9.93;;
76357;SDS011;65185;21.060;105.826;2023-07-31T13:35:10;18.95;;;11.18;;
76357;SDS011;65185;21.060;105.826;2023-07-31T13:37:37;17.10;;;10.57;;
76357;SDS011;65185;21.060;105.826;2023-07-31T13:40:04;17.70;;;10.73;;
76357;SDS011;65185;21.060;105.826;2023-07-31T13:42:31;18.70;;;10.18;;
76357;SDS011;65185;21.060;105.826;2023-07-31T13:44:58;16.73;;;10.35;;
76357;SDS011;65185;21.060;105.826;2023-07-31T13:47:25;16.48;;;11.13;;
76357;SDS011;65185;21.060;105.826;2023-07-31T13:49:52;19.40;;;11.73;;
76357;SDS011;65185;21.060;105.826;2023-07-31T13:52:19;15.43;;;10.68;;
76357;SDS011;65185;21.060;105.826;2023-07-31T13:54:46;16.42;;;10.80;;
76357;SDS011;65185;21.060;105.826;2023-07-31T13:57:12;18.05;;;11.02;;
76357;SDS011;65185;21.060;105.826;2023-07-31T13:59:39;16.48;;;10.70;;
76357;SDS011;65185;21.060;105.826;2023-07-31T14:02:06;19.70;;;11.10;;
76357;SDS011;65185;21.060;105.826;2023-07-31T14:04:33;18.65;;;11.48;;
76357;SDS011;65185;21.060;105.826;2023-07-31T14:06:59;18.17;;;11.43;;
76357;SDS011;65185;21.060;105.826;2023-07-31T14:09:26;16.15;;;11.27;;
76357;SDS011;65185;21.060;105.826;2023-07-31T14:11:54;18.75;;;12.35;;
76357;SDS011;65185;21.060;105.826;2023-07-31T14:14:20;18.52;;;11.13;;
76357;SDS011;65185;21.060;105.826;2023-07-31T14:16:47;18.25;;;12.00;;
76357;SDS011;65185;21.060;105.826;2023-07-31T14:19:14;18.30;;;11.10;;
76357;SDS011;65185;21.060;105.826;2023-07-31T14:21:41;17.35;;;10.82;;